Time;durP1;ratioP1;P1;durP2;ratioP2;P2;SDS_P1;SDS_P2;PMS_P1;PMS_P2;Temp;Humidity;BMP_temperature;BMP_pressure;BME280_temperature;BME280_humidity;BME280_pressure;Samples;Min_cycle;Max_cycle;Signal;HPM_P1;HPM_P2
2022/07/10 00:01:13;;;;;;;8.68;4.60;;;14.90;99.90;;;;;;5006189;28;20239;-76
2022/07/10 00:03:38;;;;;;;8.35;4.45;;;14.80;99.90;;;;;;5010763;28;20397;-77
2022/07/10 00:06:04;;;;;;;9.05;5.20;;;14.80;99.90;;;;;;5000159;28;20751;-76
2022/07/10 00:08:30;;;;;;;7.20;4.63;;;14.80;99.90;;;;;;5009434;28;20496;-78
2022/07/10 00:10:56;;;;;;;10.55;5.22;;;14.70;99.90;;;;;;5007916;28;20400;-75
2022/07/10 00:13:21;;;;;;;9.52;4.68;;;14.70;99.90;;;;;;5010029;28;20463;-77
2022/07/10 00:15:47;;;;;;;9.98;5.20;;;14.70;99.90;;;;;;5010129;28;20041;-77
2022/07/10 00:18:13;;;;;;;9.25;4.75;;;14.60;99.90;;;;;;5010122;28;20030;-75
2022/07/10 00:20:38;;;;;;;9.20;5.13;;;14.50;99.90;;;;;;5008762;28;20487;-76
2022/07/10 00:23:04;;;;;;;8.90;4.70;;;14.50;99.90;;;;;;5009961;28;20462;-77
2022/07/10 00:25:30;;;;;;;8.52;4.75;;;14.50;99.90;;;;;;5009972;28;20457;-76
2022/07/10 00:27:56;;;;;;;8.88;5.25;;;14.50;99.90;;;;;;5010134;28;20037;-76
2022/07/10 00:30:21;;;;;;;9.18;4.72;;;14.40;99.90;;;;;;5009900;28;20037;-76
2022/07/10 00:32:47;;;;;;;9.68;4.25;;;14.40;99.90;;;;;;5009700;28;20132;-77
2022/07/10 00:35:13;;;;;;;10.55;4.57;;;14.40;99.90;;;;;;5008190;28;20038;-76
2022/07/10 00:37:38;;;;;;;7.43;4.60;;;14.30;99.90;;;;;;5009902;28;20025;-77
2022/07/10 00:40:05;;;;;;;7.72;4.35;;;14.40;99.90;;;;;;4991722;28;20282;-76
2022/07/10 00:42:31;;;;;;;7.55;4.22;;;14.30;99.90;;;;;;5009738;28;20021;-77
2022/07/10 00:44:56;;;;;;;9.45;4.97;;;14.30;99.90;;;;;;5008821;28;20156;-75
2022/07/10 00:47:22;;;;;;;10.63;5.15;;;14.30;99.90;;;;;;5012327;28;20554;-76
2022/07/10 00:49:48;;;;;;;6.78;4.43;;;14.40;99.90;;;;;;5009982;28;20064;-76
2022/07/10 00:52:17;;;;;;;10.82;5.22;;;14.30;99.90;;;;;;5005819;28;20396;-77
2022/07/10 00:54:50;;;;;;;7.45;4.45;;;14.30;99.90;;;;;;5007823;28;20373;-77
2022/07/10 00:57:16;;;;;;;7.63;4.07;;;14.30;99.90;;;;;;5009662;28;20026;-79
2022/07/10 00:59:43;;;;;;;8.70;4.15;;;14.30;99.90;;;;;;5008803;28;20042;-77
2022/07/10 01:02:10;;;;;;;6.75;3.90;;;14.20;99.90;;;;;;5009313;28;20138;-76
2022/07/10 01:04:35;;;;;;;8.15;4.47;;;14.20;99.90;;;;;;5008457;28;20037;-77
2022/07/10 01:07:01;;;;;;;7.68;4.00;;;14.10;99.90;;;;;;5008553;28;20108;-75
2022/07/10 01:09:30;;;;;;;6.53;4.13;;;14.10;99.90;;;;;;4991259;28;20519;-76
2022/07/10 01:11:59;;;;;;;9.07;4.32;;;14.00;99.90;;;;;;5008560;28;20113;-77
2022/07/10 01:14:25;;;;;;;8.18;3.75;;;14.10;99.90;;;;;;5008660;28;20444;-77
2022/07/10 01:16:53;;;;;;;7.53;3.90;;;14.10;99.90;;;;;;5008849;28;20506;-77
2022/07/10 01:19:19;;;;;;;6.55;3.58;;;14.10;99.90;;;;;;5007598;28;20029;-78
2022/07/10 01:21:44;;;;;;;7.63;3.60;;;14.00;99.90;;;;;;5008140;28;20030;-75
2022/07/10 01:24:11;;;;;;;6.13;3.92;;;14.10;99.90;;;;;;4982236;28;20352;-75
2022/07/10 01:26:37;;;;;;;5.85;3.55;;;14.00;99.90;;;;;;5010221;28;20026;-75
2022/07/10 01:29:07;;;;;;;6.78;3.17;;;14.00;99.90;;;;;;5007903;28;20774;-76
2022/07/10 01:31:33;;;;;;;7.25;3.67;;;13.90;99.90;;;;;;5009171;28;20077;-76
2022/07/10 01:34:00;;;;;;;6.32;3.38;;;13.90;99.90;;;;;;5008622;28;20487;-76
2022/07/10 01:36:28;;;;;;;6.45;3.90;;;13.90;99.90;;;;;;5008449;28;20042;-76
2022/07/10 01:38:55;;;;;;;6.38;3.65;;;13.90;99.90;;;;;;5008007;28;20033;-75
2022/07/10 01:41:21;;;;;;;6.32;3.58;;;13.90;99.90;;;;;;4990796;28;20033;-76
2022/07/10 01:43:48;;;;;;;6.53;3.55;;;14.00;99.90;;;;;;5007570;28;20096;-77
2022/07/10 01:46:15;;;;;;;6.88;3.85;;;13.90;99.90;;;;;;5008224;28;20040;-76
2022/07/10 01:48:41;;;;;;;6.25;3.83;;;13.80;99.90;;;;;;5005121;28;20046;-77
2022/07/10 01:51:08;;;;;;;7.05;3.95;;;13.70;99.90;;;;;;5008327;28;20030;-76
2022/07/10 01:53:34;;;;;;;5.88;3.53;;;13.60;99.90;;;;;;5008360;28;20121;-77
2022/07/10 01:56:02;;;;;;;6.00;3.97;;;13.60;99.90;;;;;;5008257;28;20042;-77
2022/07/10 01:58:28;;;;;;;6.70;4.07;;;13.70;99.90;;;;;;5006377;28;20423;-76
2022/07/10 02:00:54;;;;;;;9.82;5.10;;;13.70;99.90;;;;;;5006782;28;20026;-74
2022/07/10 02:06:04;;;;;;;8.88;4.60;;;13.80;99.90;;;;;;5004978;28;20085;-75
2022/07/10 02:08:30;;;;;;;8.23;5.32;;;13.80;99.90;;;;;;4990560;28;20038;-76
2022/07/10 02:10:55;;;;;;;8.13;4.97;;;13.70;99.90;;;;;;5009741;28;20754;-78
2022/07/10 02:13:21;;;;;;;8.38;5.80;;;13.70;99.90;;;;;;4985858;28;20037;-77
2022/07/10 02:15:47;;;;;;;7.18;5.95;;;13.80;99.90;;;;;;5007494;28;20042;-76
2022/07/10 02:18:13;;;;;;;13.00;5.60;;;13.80;99.90;;;;;;5008973;28;20587;-76
2022/07/10 02:20:39;;;;;;;6.85;5.70;;;13.70;99.90;;;;;;5008780;28;20069;-74
2022/07/10 02:23:06;;;;;;;7.93;5.68;;;13.70;99.90;;;;;;5008762;28;20133;-75
2022/07/10 02:25:31;;;;;;;7.40;5.70;;;13.70;99.90;;;;;;4991073;28;20117;-75
2022/07/10 02:27:57;;;;;;;8.52;5.70;;;13.60;99.90;;;;;;5007968;28;20963;-74
2022/07/10 02:30:23;;;;;;;6.95;5.60;;;13.60;99.90;;;;;;5008422;28;20041;-74
2022/07/10 02:32:48;;;;;;;10.15;5.93;;;13.70;99.90;;;;;;5008078;28;20046;-75
2022/07/10 02:35:14;;;;;;;10.68;5.60;;;13.60;99.90;;;;;;5007062;28;20034;-75
2022/07/10 02:37:40;;;;;;;9.02;6.55;;;13.60;99.90;;;;;;5007569;28;20030;-75
2022/07/10 02:40:06;;;;;;;8.45;5.90;;;13.60;99.90;;;;;;5008873;28;20068;-75
2022/07/10 02:42:32;;;;;;;8.48;6.55;;;13.60;99.90;;;;;;5007203;28;20045;-75
2022/07/10 02:44:57;;;;;;;8.63;5.88;;;13.60;99.90;;;;;;5007821;28;20037;-73
2022/07/10 02:47:23;;;;;;;9.40;6.22;;;13.50;99.90;;;;;;5004912;28;20034;-74
2022/07/10 02:49:49;;;;;;;8.98;5.72;;;13.50;99.90;;;;;;5007377;28;20038;-76
2022/07/10 02:52:14;;;;;;;7.38;5.18;;;13.50;99.90;;;;;;5007392;28;20030;-76
2022/07/10 02:54:40;;;;;;;9.45;6.00;;;13.40;99.90;;;;;;5008893;28;20030;-75
2022/07/10 02:57:06;;;;;;;7.90;5.50;;;13.40;99.90;;;;;;5006007;28;20033;-75
2022/07/10 02:59:31;;;;;;;8.85;6.20;;;13.40;99.90;;;;;;5006923;28;20033;-75
2022/07/10 03:01:57;;;;;;;9.10;5.88;;;13.40;99.90;;;;;;5007225;28;20029;-74
2022/07/10 03:04:23;;;;;;;11.23;6.30;;;13.40;99.90;;;;;;5007616;28;20088;-73
2022/07/10 03:06:48;;;;;;;9.10;6.10;;;13.40;99.90;;;;;;5007313;28;20121;-75
2022/07/10 03:09:14;;;;;;;8.13;5.10;;;13.40;99.90;;;;;;5004719;28;20038;-74
2022/07/10 03:11:40;;;;;;;7.45;4.65;;;13.30;99.90;;;;;;5006679;28;20034;-75
2022/07/10 03:14:05;;;;;;;8.55;5.28;;;13.30;99.90;;;;;;5006898;28;20053;-76
2022/07/10 03:16:32;;;;;;;7.97;5.47;;;13.30;99.90;;;;;;5008351;28;20476;-75
2022/07/10 03:18:57;;;;;;;8.30;5.28;;;13.20;99.90;;;;;;5007204;28;20036;-74
2022/07/10 03:21:23;;;;;;;10.35;5.85;;;13.10;99.90;;;;;;5004479;28;20025;-74
2022/07/10 03:23:50;;;;;;;8.27;5.57;;;13.10;99.90;;;;;;5007231;28;20396;-75
2022/07/10 03:26:15;;;;;;;8.80;5.38;;;13.00;99.90;;;;;;5005254;28;20026;-75
2022/07/10 03:28:41;;;;;;;6.22;4.47;;;13.00;99.90;;;;;;5012191;28;20116;-74
2022/07/10 03:31:08;;;;;;;9.80;5.60;;;13.00;99.90;;;;;;5006394;28;20057;-75
2022/07/10 03:33:33;;;;;;;10.20;6.20;;;12.90;99.90;;;;;;5005930;28;20029;-75
2022/07/10 03:36:01;;;;;;;10.68;6.28;;;12.80;99.90;;;;;;5011838;28;20029;-75
2022/07/10 03:38:27;;;;;;;7.18;5.30;;;12.70;99.90;;;;;;5006128;28;20076;-76
2022/07/10 03:40:53;;;;;;;8.23;6.13;;;12.70;99.90;;;;;;5008167;28;20042;-76
2022/07/10 03:43:18;;;;;;;9.65;6.93;;;12.60;99.90;;;;;;5007395;28;20022;-75
2022/07/10 03:45:44;;;;;;;9.88;6.97;;;12.50;99.90;;;;;;5006273;28;20044;-73
2022/07/10 03:48:10;;;;;;;9.93;6.38;;;12.60;99.90;;;;;;5007158;28;20036;-75
2022/07/10 03:50:35;;;;;;;7.88;6.10;;;12.60;99.90;;;;;;5007162;28;20030;-74
2022/07/10 03:53:01;;;;;;;8.10;5.65;;;12.60;99.90;;;;;;5009865;28;20548;-75
2022/07/10 03:55:27;;;;;;;7.15;5.70;;;12.60;99.90;;;;;;4990176;28;20092;-75
2022/07/10 03:58:02;;;;;;;9.38;6.63;;;12.50;99.90;;;;;;5006425;28;20037;-75
2022/07/10 04:00:28;;;;;;;9.73;6.55;;;12.50;99.90;;;;;;5005157;28;20049;-75
2022/07/10 04:03:06;;;;;;;9.30;6.47;;;12.50;99.90;;;;;;4989899;28;20041;-74
2022/07/10 04:05:32;;;;;;;9.85;6.50;;;12.40;99.90;;;;;;5004729;28;20447;-75
2022/07/10 04:07:59;;;;;;;9.95;6.15;;;12.40;99.90;;;;;;5007163;28;20519;-75
2022/07/10 04:10:29;;;;;;;9.00;6.07;;;12.40;99.90;;;;;;5007351;28;20034;-74
2022/07/10 04:12:55;;;;;;;7.53;5.75;;;12.40;99.90;;;;;;5003745;28;20073;-75
2022/07/10 04:15:22;;;;;;;7.57;5.88;;;12.40;99.90;;;;;;5006541;28;20065;-74
2022/07/10 04:17:48;;;;;;;10.85;6.22;;;12.40;99.90;;;;;;5001462;28;20042;-75
2022/07/10 04:20:15;;;;;;;9.57;6.00;;;12.40;99.90;;;;;;5004710;28;20504;-74
2022/07/10 04:22:40;;;;;;;9.85;6.03;;;12.40;99.90;;;;;;5005217;28;20596;-75
2022/07/10 04:25:07;;;;;;;8.98;5.63;;;12.50;99.90;;;;;;5022442;28;20034;-75
2022/07/10 04:27:32;;;;;;;9.60;5.47;;;12.50;99.90;;;;;;5006791;28;20072;-75
2022/07/10 04:29:58;;;;;;;8.50;4.90;;;12.50;99.90;;;;;;5010091;28;20476;-74
2022/07/10 04:32:24;;;;;;;6.18;4.95;;;12.50;99.90;;;;;;5007750;28;20458;-75
2022/07/10 04:34:50;;;;;;;8.30;5.50;;;12.50;99.90;;;;;;5018102;28;20065;-75
2022/07/10 04:37:16;;;;;;;7.95;5.40;;;12.60;99.90;;;;;;5010183;28;20034;-75
2022/07/10 04:39:42;;;;;;;7.63;5.40;;;12.60;99.90;;;;;;5013311;28;20040;-75
2022/07/10 04:42:08;;;;;;;6.63;5.05;;;12.60;99.90;;;;;;5017151;28;20026;-75
2022/07/10 04:44:34;;;;;;;6.88;4.38;;;12.70;99.90;;;;;;5004272;28;20042;-75
2022/07/10 04:47:00;;;;;;;8.20;5.03;;;12.80;99.90;;;;;;5008736;28;20056;-74
2022/07/10 04:49:26;;;;;;;9.20;5.20;;;12.80;99.90;;;;;;5009752;28;20370;-76
2022/07/10 04:51:52;;;;;;;9.30;5.65;;;12.90;99.90;;;;;;5008449;28;20393;-74
2022/07/10 04:54:18;;;;;;;8.30;5.32;;;13.00;99.90;;;;;;4991539;28;20095;-75
2022/07/10 04:56:43;;;;;;;8.30;5.18;;;13.00;99.90;;;;;;5008021;28;20084;-75
2022/07/10 04:59:10;;;;;;;8.00;4.57;;;13.10;99.90;;;;;;5020476;28;20030;-75
2022/07/10 05:01:37;;;;;;;6.28;4.93;;;13.10;99.90;;;;;;5010406;28;20112;-75
2022/07/10 05:04:03;;;;;;;7.72;5.00;;;13.10;99.90;;;;;;5007876;28;20029;-75
2022/07/10 05:06:29;;;;;;;8.68;5.63;;;13.20;99.90;;;;;;5008540;28;20034;-74
2022/07/10 05:08:55;;;;;;;8.48;5.72;;;13.20;99.90;;;;;;5012287;28;20403;-74
2022/07/10 05:11:21;;;;;;;6.90;5.28;;;13.20;99.90;;;;;;4990964;28;20061;-75
2022/07/10 05:13:48;;;;;;;8.23;5.25;;;13.30;99.90;;;;;;5008429;28;20111;-77
2022/07/10 05:16:15;;;;;;;8.90;5.70;;;13.20;99.90;;;;;;5015973;28;20042;-75
2022/07/10 05:18:40;;;;;;;8.02;6.10;;;13.30;99.90;;;;;;5009805;28;20108;-77
2022/07/10 05:21:07;;;;;;;8.88;4.95;;;13.30;99.90;;;;;;5007176;28;20116;-76
2022/07/10 05:23:33;;;;;;;9.15;5.35;;;13.40;99.90;;;;;;5009474;28;20037;-76
2022/07/10 05:25:58;;;;;;;7.95;5.13;;;13.50;99.90;;;;;;5008987;28;20038;-75
2022/07/10 05:28:24;;;;;;;7.35;4.72;;;13.50;99.90;;;;;;5008299;28;20037;-76
2022/07/10 05:30:50;;;;;;;7.07;4.75;;;13.60;99.90;;;;;;5006858;28;20088;-75
2022/07/10 05:33:16;;;;;;;8.73;4.78;;;13.60;99.90;;;;;;5009069;28;20542;-75
2022/07/10 05:35:42;;;;;;;7.78;4.47;;;13.70;99.90;;;;;;5009449;28;20483;-76
2022/07/10 05:38:08;;;;;;;8.57;5.15;;;13.70;99.90;;;;;;5009202;28;20045;-75
2022/07/10 05:40:33;;;;;;;8.32;4.53;;;13.80;99.90;;;;;;5008591;28;20072;-76
2022/07/10 05:42:59;;;;;;;7.70;4.22;;;13.80;99.90;;;;;;5009813;28;20030;-76
2022/07/10 05:45:25;;;;;;;7.45;4.80;;;13.80;99.90;;;;;;4988606;28;20113;-76
2022/07/10 05:47:51;;;;;;;8.43;4.40;;;13.80;99.90;;;;;;5006191;28;20385;-77
2022/07/10 05:50:16;;;;;;;8.48;4.60;;;13.90;99.90;;;;;;4994570;28;20072;-76
2022/07/10 05:52:42;;;;;;;8.35;4.40;;;13.90;99.90;;;;;;4999166;28;20034;-76
2022/07/10 05:55:08;;;;;;;7.25;4.47;;;13.90;99.90;;;;;;4989187;28;20040;-75
2022/07/10 05:57:35;;;;;;;7.15;4.10;;;14.00;99.90;;;;;;5008803;28;20033;-76
2022/07/10 06:00:01;;;;;;;7.95;4.03;;;14.10;99.90;;;;;;5013170;28;20037;-76
2022/07/10 06:02:27;;;;;;;7.40;4.10;;;14.10;99.90;;;;;;5002874;28;20148;-75
2022/07/10 06:04:52;;;;;;;7.75;4.65;;;14.20;99.90;;;;;;5014076;28;20034;-74
2022/07/10 06:07:18;;;;;;;6.53;4.15;;;14.20;99.90;;;;;;5008629;28;20025;-75
2022/07/10 06:09:44;;;;;;;8.55;4.78;;;14.30;99.90;;;;;;5001975;28;20103;-77
2022/07/10 06:12:09;;;;;;;8.20;4.20;;;14.30;99.90;;;;;;5003280;28;20025;-76
2022/07/10 06:14:35;;;;;;;10.48;4.30;;;14.40;99.90;;;;;;4988762;28;20030;-76
2022/07/10 06:17:01;;;;;;;6.72;3.95;;;14.40;99.90;;;;;;5002087;28;20025;-76
2022/07/10 06:19:27;;;;;;;8.55;4.78;;;14.50;99.90;;;;;;5007344;28;20022;-77
2022/07/10 06:22:39;;;;;;;8.23;4.47;;;14.60;99.90;;;;;;5012195;28;20038;-78
2022/07/10 06:24:39;;;;;;;9.50;4.35;;;14.70;99.90;;;;;;4999325;28;20037;-77
2022/07/10 06:27:05;;;;;;;9.50;5.20;;;14.80;99.90;;;;;;5002945;28;20037;-76
2022/07/10 06:29:30;;;;;;;8.73;4.88;;;14.80;99.90;;;;;;5003549;28;20124;-76
2022/07/10 06:31:56;;;;;;;6.65;4.40;;;14.90;99.90;;;;;;5004832;28;20112;-76
2022/07/10 06:34:22;;;;;;;7.60;4.50;;;15.00;99.90;;;;;;5005998;28;20451;-75
2022/07/10 06:36:47;;;;;;;8.73;4.60;;;15.10;99.90;;;;;;5004163;28;20034;-77
2022/07/10 06:39:13;;;;;;;7.38;4.53;;;15.20;99.90;;;;;;4988610;28;20079;-76
2022/07/10 06:41:39;;;;;;;9.15;4.40;;;15.30;99.90;;;;;;5006596;28;20029;-75
2022/07/10 06:44:05;;;;;;;9.02;5.03;;;15.40;99.90;;;;;;5004976;28;20088;-76
2022/07/10 06:46:32;;;;;;;7.70;4.57;;;15.50;99.90;;;;;;5004476;28;20064;-77
2022/07/10 06:48:58;;;;;;;6.70;4.00;;;15.60;99.90;;;;;;5007899;28;20034;-76
2022/07/10 06:51:24;;;;;;;8.88;4.57;;;15.70;99.90;;;;;;5004015;28;20084;-76
2022/07/10 06:53:50;;;;;;;8.65;4.90;;;15.80;99.90;;;;;;5004070;28;20064;-77
2022/07/10 06:56:16;;;;;;;8.05;4.60;;;15.90;99.90;;;;;;5004163;28;20033;-76
2022/07/10 06:58:42;;;;;;;8.25;4.03;;;16.00;99.90;;;;;;4980312;28;20050;-76
2022/07/10 07:01:08;;;;;;;9.20;4.38;;;16.20;99.90;;;;;;5006367;28;20117;-74
2022/07/10 07:03:34;;;;;;;8.13;3.53;;;16.30;99.90;;;;;;4985717;28;20037;-77
2022/07/10 07:05:59;;;;;;;7.88;4.22;;;16.40;99.90;;;;;;5007084;28;20045;-77
2022/07/10 07:08:25;;;;;;;7.53;4.20;;;16.50;99.90;;;;;;5005042;28;20049;-74
2022/07/10 07:10:51;;;;;;;12.27;3.70;;;16.60;99.90;;;;;;5005399;28;20088;-76
2022/07/10 07:13:16;;;;;;;8.82;3.35;;;16.80;99.90;;;;;;5008417;28;20033;-77
2022/07/10 07:15:46;;;;;;;9.77;3.20;;;16.90;99.90;;;;;;5002725;28;20037;-75
2022/07/10 07:18:15;;;;;;;9.50;3.00;;;17.10;99.90;;;;;;5000917;28;20033;-76
2022/07/10 07:23:27;;;;;;;6.32;2.75;;;17.40;99.90;;;;;;5003939;28;20045;-76
2022/07/10 07:25:53;;;;;;;7.38;2.95;;;17.60;99.90;;;;;;5005595;28;20038;-75
2022/07/10 07:28:19;;;;;;;9.23;2.40;;;17.80;99.90;;;;;;5004696;28;20439;-77
2022/07/10 07:30:47;;;;;;;5.85;2.05;;;17.90;99.90;;;;;;4988270;28;20100;-77
2022/07/10 07:33:13;;;;;;;6.38;2.42;;;18.10;99.90;;;;;;4983682;28;20769;-77
2022/07/10 07:35:39;;;;;;;5.20;2.30;;;18.20;99.90;;;;;;5009821;28;20520;-75
2022/07/10 07:38:05;;;;;;;7.05;2.03;;;18.30;99.90;;;;;;5006561;28;20519;-76
2022/07/10 07:40:31;;;;;;;5.25;1.85;;;18.40;99.90;;;;;;5005199;28;20038;-76
2022/07/10 07:42:57;;;;;;;6.80;2.25;;;18.50;99.90;;;;;;5003183;28;20088;-78
2022/07/10 07:45:24;;;;;;;6.55;2.03;;;18.60;99.90;;;;;;5008235;28;20038;-78
2022/07/10 07:47:50;;;;;;;5.18;2.20;;;18.80;99.90;;;;;;5003009;28;20046;-78
2022/07/10 07:50:18;;;;;;;4.35;1.90;;;18.90;99.90;;;;;;5005308;28;20034;-77
2022/07/10 07:52:45;;;;;;;5.05;1.80;;;19.00;99.90;;;;;;5007296;28;20061;-77
2022/07/10 07:55:14;;;;;;;5.28;1.88;;;19.10;99.90;;;;;;5005097;28;20058;-76
2022/07/10 07:57:40;;;;;;;5.47;2.20;;;19.30;99.90;;;;;;5003738;28;20030;-77
2022/07/10 08:00:07;;;;;;;4.18;1.70;;;19.50;99.90;;;;;;4987896;28;20044;-74
2022/07/10 08:02:34;;;;;;;7.00;2.00;;;19.60;99.90;;;;;;5003814;28;20036;-77
2022/07/10 08:05:00;;;;;;;6.47;1.90;;;19.70;99.90;;;;;;5006633;28;20033;-75
2022/07/10 08:07:37;;;;;;;10.18;1.80;;;19.90;99.90;;;;;;5009477;28;20037;-76
2022/07/10 08:10:04;;;;;;;6.57;2.10;;;20.10;99.90;;;;;;5007530;28;20061;-76
2022/07/10 08:12:30;;;;;;;4.90;1.52;;;20.20;99.90;;;;;;5003471;28;20473;-75
2022/07/10 08:14:56;;;;;;;5.65;1.92;;;20.30;99.90;;;;;;5012493;28;20088;-76
2022/07/10 08:17:22;;;;;;;6.35;2.00;;;20.30;99.90;;;;;;4993233;28;20042;-77
2022/07/10 08:19:47;;;;;;;5.32;1.80;;;20.50;99.90;;;;;;5010412;28;20034;-77
2022/07/10 08:22:13;;;;;;;4.65;1.50;;;20.60;99.90;;;;;;5010514;28;20635;-76
2022/07/10 08:24:39;;;;;;;5.65;1.80;;;20.60;99.90;;;;;;5009294;28;20071;-77
2022/07/10 08:27:07;;;;;;;5.28;1.63;;;20.70;99.90;;;;;;5007708;28;20037;-78
2022/07/10 08:29:33;;;;;;;4.50;1.60;;;20.80;99.90;;;;;;5004391;28;20076;-77
2022/07/10 08:31:59;;;;;;;4.38;1.70;;;20.90;99.90;;;;;;4995617;28;20077;-77
2022/07/10 08:34:25;;;;;;;5.38;1.75;;;21.00;99.90;;;;;;5010159;28;20037;-77
2022/07/10 08:36:51;;;;;;;5.15;1.70;;;21.10;99.90;;;;;;5010455;28;20038;-77
2022/07/10 08:39:20;;;;;;;4.00;1.48;;;21.10;99.70;;;;;;5007803;28;20034;-75
2022/07/10 08:41:49;;;;;;;4.43;1.40;;;21.10;99.60;;;;;;5005957;28;20033;-77
2022/07/10 08:44:19;;;;;;;3.88;1.55;;;21.10;99.90;;;;;;5004552;28;20087;-78
2022/07/10 08:46:45;;;;;;;6.18;1.50;;;21.30;99.90;;;;;;5011234;28;20041;-78
2022/07/10 08:49:13;;;;;;;4.25;1.40;;;21.40;98.90;;;;;;5009187;28;20030;-77
2022/07/10 08:51:52;;;;;;;4.57;1.27;;;21.50;99.60;;;;;;4998133;28;20751;-78
2022/07/10 08:54:20;;;;;;;4.47;1.65;;;21.60;99.00;;;;;;5008977;28;20026;-77
2022/07/10 08:56:47;;;;;;;4.00;1.45;;;21.60;98.50;;;;;;5009927;28;20498;-79
2022/07/10 08:59:14;;;;;;;3.22;1.30;;;21.60;97.20;;;;;;5012610;28;20132;-78
2022/07/10 09:01:40;;;;;;;4.75;1.40;;;21.60;97.80;;;;;;5010006;28;20037;-77
2022/07/10 09:04:06;;;;;;;2.85;1.30;;;21.70;98.60;;;;;;5009324;28;20088;-76
2022/07/10 09:06:32;;;;;;;3.88;1.50;;;21.90;97.30;;;;;;5009715;28;20026;-78
2022/07/10 09:08:59;;;;;;;3.92;1.10;;;22.10;97.90;;;;;;5009136;28;20053;-77
2022/07/10 09:11:28;;;;;;;3.70;1.23;;;22.30;97.60;;;;;;4988854;28;20036;-76
2022/07/10 09:14:04;;;;;;;3.63;1.10;;;22.40;96.00;;;;;;5007909;28;20030;-76
2022/07/10 09:16:34;;;;;;;4.05;1.38;;;22.50;96.60;;;;;;5010008;28;20058;-77
2022/07/10 09:19:18;;;;;;;2.47;1.10;;;22.70;95.30;;;;;;5009205;28;20097;-77
2022/07/10 09:21:59;;;;;;;3.67;1.30;;;22.90;95.80;;;;;;5003502;28;20022;-78
2022/07/10 09:24:25;;;;;;;3.65;1.10;;;23.00;96.10;;;;;;5009663;28;20032;-77
2022/07/10 09:26:56;;;;;;;4.10;1.40;;;23.00;95.40;;;;;;5009748;28;20075;-80
2022/07/10 09:29:22;;;;;;;5.47;1.23;;;23.10;95.70;;;;;;4991626;28;20498;-77
2022/07/10 09:31:52;;;;;;;5.65;1.65;;;23.20;96.30;;;;;;5006811;28;20049;-77
2022/07/10 09:34:18;;;;;;;;;;;23.40;95.80;;;;;;4992485;28;20457;-78
2022/07/10 09:36:44;;;;;;;4.70;1.35;;;23.30;93.40;;;;;;5009381;28;19917;-76
2022/07/10 09:39:10;;;;;;;3.83;1.27;;;23.30;94.70;;;;;;5009981;28;20040;-77
2022/07/10 09:41:35;;;;;;;5.65;1.45;;;23.30;92.50;;;;;;5009752;28;20404;-77
2022/07/10 09:44:08;;;;;;;3.60;1.20;;;23.30;94.30;;;;;;4991030;28;20469;-78
2022/07/10 09:46:38;;;;;;;3.97;1.17;;;23.50;94.80;;;;;;5007284;28;20046;-78
2022/07/10 09:49:04;;;;;;;3.50;1.42;;;23.60;91.00;;;;;;5007765;28;20088;-77
2022/07/10 09:51:39;;;;;;;4.43;1.15;;;23.70;92.50;;;;;;5014690;28;20045;-77
2022/07/10 09:54:07;;;;;;;4.35;1.20;;;23.70;92.60;;;;;;5021716;28;20060;-78
2022/07/10 09:56:43;;;;;;;3.30;1.08;;;23.60;90.80;;;;;;5010735;28;20135;-77
2022/07/10 09:59:11;;;;;;;4.40;1.10;;;23.70;91.90;;;;;;4992072;28;20022;-77
2022/07/10 10:01:43;;;;;;;5.03;1.55;;;23.80;92.10;;;;;;5007141;28;20044;-78
2022/07/10 10:04:11;;;;;;;7.38;1.30;;;24.00;92.30;;;;;;5014494;28;20053;-76
2022/07/10 10:06:38;;;;;;;3.72;1.10;;;24.10;92.00;;;;;;5006772;28;20402;-77
2022/07/10 10:09:11;;;;;;;5.20;1.42;;;24.20;89.70;;;;;;5008561;28;20037;-77
2022/07/10 10:11:39;;;;;;;5.15;1.30;;;24.30;85.10;;;;;;5008208;28;20435;-78
2022/07/10 10:14:07;;;;;;;5.55;1.13;;;24.20;88.10;;;;;;5000944;28;20029;-77
2022/07/10 10:16:34;;;;;;;3.97;1.30;;;24.30;89.90;;;;;;5008460;28;20030;-77
2022/07/10 10:21:48;;;;;;;4.05;1.00;;;24.30;90.00;;;;;;5009180;28;20081;-76
2022/07/10 10:24:14;;;;;;;5.60;1.20;;;24.40;82.00;;;;;;5007869;28;20038;-76
2022/07/10 10:26:41;;;;;;;4.18;1.10;;;24.40;83.00;;;;;;5005217;28;20073;-76
2022/07/10 10:29:09;;;;;;;3.28;1.10;;;24.40;88.50;;;;;;5008668;28;20036;-77
2022/07/10 10:31:35;;;;;;;4.68;0.88;;;24.60;84.00;;;;;;5011678;28;20050;-77
2022/07/10 10:34:01;;;;;;;1.85;1.00;;;24.80;87.10;;;;;;5008362;28;20099;-74
2022/07/10 10:36:44;;;;;;;3.83;1.23;;;24.90;79.20;;;;;;5008317;28;20165;-78
2022/07/10 10:39:16;;;;;;;3.83;1.20;;;24.80;80.90;;;;;;5011348;28;20069;-76
2022/07/10 10:41:52;;;;;;;3.17;0.98;;;24.70;80.90;;;;;;5006887;28;20136;-76
2022/07/10 10:44:18;;;;;;;2.88;1.08;;;24.80;82.70;;;;;;5003887;28;20091;-75
2022/07/10 10:46:50;;;;;;;3.20;1.00;;;25.00;84.60;;;;;;5007079;28;20476;-75
2022/07/10 10:49:16;;;;;;;2.45;0.95;;;25.20;78.60;;;;;;5006494;28;20480;-76
2022/07/10 10:52:01;;;;;;;4.20;1.02;;;25.30;74.20;;;;;;5005494;28;20041;-74
2022/07/10 10:54:29;;;;;;;3.17;1.08;;;25.50;79.30;;;;;;5007808;28;20455;-77
2022/07/10 10:57:17;;;;;;;2.95;1.10;;;25.50;76.70;;;;;;5007651;28;20034;-76
2022/07/10 10:59:47;;;;;;;4.68;1.20;;;25.70;69.50;;;;;;5003224;28;20033;-74
2022/07/10 11:02:41;;;;;;;3.38;1.20;;;25.80;69.70;;;;;;5004562;28;20499;-75
2022/07/10 11:05:19;;;;;;;3.97;1.10;;;25.80;68.60;;;;;;5009438;28;20033;-78
2022/07/10 11:07:52;;;;;;;3.37;0.90;;;25.70;68.40;;;;;;5004937;28;20044;-75
2022/07/10 11:10:27;;;;;;;4.75;1.10;;;25.70;66.30;;;;;;5005498;28;20279;-79
2022/07/10 11:13:13;;;;;;;4.15;1.10;;;25.60;66.20;;;;;;4988738;28;20072;-77
2022/07/10 11:15:49;;;;;;;3.65;0.90;;;25.50;71.30;;;;;;5003986;28;20026;-74
2022/07/10 11:18:21;;;;;;;3.13;1.00;;;26.10;68.60;;;;;;5000832;28;20037;-74
2022/07/10 11:20:50;;;;;;;2.38;0.75;;;26.70;65.70;;;;;;5007268;28;20828;-74
2022/07/10 11:23:49;;;;;;;3.95;1.35;;;26.80;63.90;;;;;;5012305;28;20049;-77
2022/07/10 11:26:23;;;;;;;2.33;0.90;;;27.50;59.80;;;;;;5005145;28;20077;-77
2022/07/10 11:28:53;;;;;;;3.55;0.80;;;27.80;58.80;;;;;;5002219;28;20037;-75
2022/07/10 11:31:20;;;;;;;2.88;0.90;;;28.60;51.70;;;;;;5005362;28;20053;-75
2022/07/10 11:33:48;;;;;;;3.28;0.90;;;28.10;53.60;;;;;;5013017;28;20030;-75
2022/07/10 11:36:15;;;;;;;4.85;1.05;;;28.30;53.80;;;;;;4999910;28;20498;-74
2022/07/10 11:38:42;;;;;;;2.35;1.08;;;28.00;53.30;;;;;;5015209;28;20040;-76
2022/07/10 11:41:22;;;;;;;2.78;0.95;;;27.60;53.90;;;;;;5010335;28;20072;-76
2022/07/10 11:44:00;;;;;;;5.50;1.45;;;27.20;56.50;;;;;;5003562;28;20556;-82
2022/07/10 11:46:28;;;;;;;2.92;1.00;;;26.90;57.20;;;;;;5011706;28;20042;-80
2022/07/10 11:48:56;;;;;;;5.03;1.30;;;26.70;59.80;;;;;;4994829;28;20030;-77
2022/07/10 11:51:32;;;;;;;3.13;1.00;;;26.60;61.40;;;;;;5012576;28;20076;-76
2022/07/10 11:53:58;;;;;;;3.50;1.00;;;26.50;60.40;;;;;;5012855;28;20481;-78
2022/07/10 11:56:26;;;;;;;3.63;0.93;;;26.30;59.10;;;;;;5008194;28;20052;-77
2022/07/10 11:59:16;;;;;;;4.53;0.90;;;26.10;60.70;;;;;;5012695;28;20037;-76
2022/07/10 12:01:48;;;;;;;2.17;0.90;;;26.00;65.00;;;;;;5010056;28;20034;-77
2022/07/10 12:04:16;;;;;;;2.95;0.93;;;25.90;61.50;;;;;;5007956;28;20037;-77
2022/07/10 12:06:47;;;;;;;3.45;1.00;;;25.90;61.70;;;;;;5008509;28;20046;-76
2022/07/10 12:09:17;;;;;;;3.00;1.00;;;26.10;67.10;;;;;;5017994;28;20040;-76
2022/07/10 12:11:57;;;;;;;3.28;0.90;;;26.00;63.50;;;;;;5006915;28;20080;-75
2022/07/10 12:14:22;;;;;;;;;;;26.00;62.20;;;;;;5012325;28;20038;-77
2022/07/10 12:16:53;;;;;;;3.22;0.93;;;25.90;59.60;;;;;;4993648;28;19909;-76
2022/07/10 12:19:22;;;;;;;2.17;0.80;;;26.00;65.30;;;;;;5010152;28;20554;-77
2022/07/10 12:21:49;;;;;;;3.25;1.10;;;25.90;62.00;;;;;;5019762;28;20038;-77
2022/07/10 12:24:23;;;;;;;3.13;1.00;;;26.00;62.60;;;;;;5011544;28;20543;-77
2022/07/10 12:26:49;;;;;;;3.20;1.00;;;26.00;64.00;;;;;;5004361;28;20049;-76
2022/07/10 12:29:18;;;;;;;2.85;1.00;;;26.00;58.80;;;;;;5011597;28;20392;-75
2022/07/10 12:31:45;;;;;;;3.00;1.05;;;25.80;61.20;;;;;;5010660;28;20061;-77
2022/07/10 12:34:11;;;;;;;2.90;0.82;;;25.70;62.40;;;;;;5009252;28;20038;-76
2022/07/10 12:36:47;;;;;;;2.58;0.90;;;25.70;62.00;;;;;;5022912;28;20073;-76
2022/07/10 12:39:15;;;;;;;3.35;0.70;;;25.80;64.00;;;;;;5018378;28;20022;-77
2022/07/10 12:42:04;;;;;;;2.27;0.77;;;25.90;60.40;;;;;;5006462;28;20029;-76
2022/07/10 12:44:30;;;;;;;;;;;25.90;62.80;;;;;;5031426;28;20433;-76
2022/07/10 12:47:11;;;;;;;2.35;0.75;;;26.00;61.00;;;;;;5015107;28;20426;-74
2022/07/10 12:49:55;;;;;;;2.45;0.70;;;26.10;59.30;;;;;;5009458;28;20021;-81
2022/07/10 12:52:32;;;;;;;3.38;0.80;;;26.30;56.80;;;;;;5002035;28;20041;-76
2022/07/10 12:55:09;;;;;;;1.88;0.70;;;26.30;57.30;;;;;;5002595;28;20404;-76
2022/07/10 12:57:56;;;;;;;1.42;0.80;;;26.30;59.00;;;;;;4989283;28;20041;-76
2022/07/10 13:00:30;;;;;;;3.20;0.80;;;26.30;60.50;;;;;;5007309;28;20030;-76